Weather observations for the past three days for
Spokane, Felts Field
Metric (Imperial)
Date Time (pdt) Wind (kph) Vis. (km) Weather Sky Cond. Temperature (ºC) Relative Humidity Wind Chill (°C) Heat Index (°C) Pressure Precipitation (cm)
Air Dwpt 6 hour altimeter (cm) sea level (mb) 1 hr 3 hr 6 hr
Max. Min.
08 14:53 S 15 16.09 Fair CLR 19.4 4.4 37% 76.1 1014.1
08 13:53 SW 19 16.09 Fair CLR 19.4 3.3 35% 76.12 1014.4
08 12:53 S 19 G 30 16.09 Fair CLR 18.3 3.3 37% 76.12 1014.5
08 11:53 S 22 16.09 Fair CLR 17.8 2.2 35% 76.12 1014.5
08 10:53 S 17 G 35 16.09 Fair CLR 18.3 0.6 18.3 7.8 31% 76.15 1014.6
08 09:53 SW 9 16.09 Fair CLR 16.7 -1.1 30% 76.15 1014.4
08 08:53 S 20 G 30 16.09 Fair CLR 15.6 -1.7 31% 76.15 1014.4
08 07:53 Calm 16.09 Fair CLR 15 -2.2 31% 76.12 1014.1
08 06:53 NE 6 16.09 Fair CLR 11.7 5 64% 76.12 1014.1
08 05:53 NE 6 16.09 Fair CLR 9.4 5.6 77% 76.1 1013.7
08 04:53 NE 7 16.09 Fair CLR 8.9 5 13.9 8.3 77% 8 76.07 1013.6
08 03:53 N 6 16.09 Fair CLR 8.9 5 77% 76.07 1013.4
08 02:53 NE 7 16.09 Fair CLR 9.4 5 74% 9 76.05 1013.2
08 01:53 N 6 16.09 Fair CLR 10.6 5 69% 76.05 1013.1
08 00:53 NE 9 16.09 Fair CLR 10 6.1 77% 9 76.05 1013.2
07 23:53 Calm 16.09 Fair CLR 11.7 5.6 66% 76.02 1013.0
07 22:53 Calm 16.09 NULL NULL 14.4 5.6 23.9 12.8 56% 76.02 1012.8
07 21:53 Calm 16.09 Fair CLR 15 6.7 58% 76.02 1012.9
07 20:53 SW 7 16.09 Fair CLR 18.3 5.6 43% 76 1012.6
07 19:53 SW 13 16.09 Fair CLR 20.6 5 36% 75.97 1012.2
07 18:53 SW 17 16.09 Fair CLR 22.8 5 32% 75.97 1011.9
07 17:53 SW 11 16.09 Fair CLR 23.3 5 31% 76 1012.4
07 16:53 S 17 16.09 Fair CLR 23.9 5.6 23.9 17.2 31% 25 76 1012.4
07 15:53 SW 11 G 30 16.09 Fair CLR 22.8 6.1 34% 76.05 1012.9
07 14:53 W 13 G 35 16.09 Fair CLR 21.7 6.1 36% 76.07 1013.5
07 13:53 Vrbl 11 16.09 Fair CLR 22.2 6.7 37% 76.12 1013.9
07 12:53 SW 9 16.09 Fair CLR 20.6 5.6 38% 76.15 1014.2
07 11:53 W 11 16.09 Fair CLR 19.4 6.7 44% 76.15 1014.3
07 10:53 SE 19 16.09 A Few Clouds FEW060 17.8 6.1 18.3 9.4 46% 76.17 1014.6
07 09:53 S 15 16.09 Fair CLR 16.1 6.1 52% 76.17 1014.7
07 08:53 SW 15 16.09 Fair CLR 14.4 5 53% 76.17 1014.7
07 07:53 SW 15 16.09 Fair CLR 12.8 5 59% 76.15 1014.5
07 06:53 S 6 16.09 Fair CLR 11.7 5 64% 76.1 1013.7
07 05:53 Calm 16.09 Fair CLR 10 5 71% 76.07 1013.4
07 04:53 Vrbl 11 16.09 Fair CLR 11.1 4.4 18.3 10.6 64% 76 1012.3
07 03:53 SW 13 16.09 Fair CLR 11.7 4.4 61% 75.97 1011.7
07 02:53 SW 11 16.09 Fair CLR 12.2 4.4 59% 75.95 1011.3
07 01:53 SW 11 16.09 Fair CLR 13.3 3.9 53% 75.9 1010.5
07 00:53 SW 17 16.09 Fair CLR 15.6 4.4 48% 75.84 1009.7
06 23:53 SW 15 16.09 Fair CLR 17.2 3.9 41% 75.79 1009.3
06 22:53 SW 22 16.09 Fair CLR 17.2 4.4 25 16.7 43% 75.77 1009.1
06 21:53 Calm 16.09 Fair CLR 19.4 4.4 37% 75.77 1008.8
06 20:53 SW 22 G 37 16.09 Fair CLR 21.7 5 34% 75.74 1008.5
06 19:53 SW 20 16.09 Fair CLR 22.8 7.8 38% 75.72 1008.4
06 18:53 SW 19 G 31 16.09 Fair CLR 24.4 7.2 33% 25 75.74 1009.0
06 17:53 SW 19 16.09 Fair CLR 24.4 6.1 31% 25 75.79 1009.6
06 16:53 SW 26 G 44 16.09 Fair CLR 25 6.1 26.7 21.1 30% 25 75.79 1009.6
06 15:53 W 19 G 37 16.09 Fair CLR 25.6 6.1 29% 26 75.84 1010.2
06 14:53 SW 20 G 41 16.09 A Few Clouds FEW080 26.1 7.8 31% 26 75.87 1010.7
06 13:53 S 15 G 35 16.09 Fair CLR 25 8.9 36% 26 75.92 1011.4
06 12:53 SW 20 G 30 16.09 Fair CLR 25 8.9 36% 26 75.95 1011.4
06 11:53 S 19 G 28 16.09 Fair CLR 22.8 8.3 40% 76.02 1012.5
06 10:53 S 19 G 28 16.09 Fair CLR 21.1 7.8 21.7 7.8 42% 76.02 1012.8
06 09:53 S 7 16.09 Fair CLR 18.3 4.4 40% 76.07 1013.3
06 08:53 E 7 16.09 Fair CLR 16.7 1.7 37% 76.07 1013.5
06 07:53 Calm 16.09 Fair CLR 13.3 2.2 47% 76.1 1013.7
06 06:53 Calm 16.09 Fair CLR 11.1 2.8 57% 76.1 1013.7
06 05:53 Vrbl 6 16.09 Fair CLR 8.3 2.8 69% 76.05 1013.1
06 04:53 Calm 16.09 Fair CLR 9.4 2.2 13.3 8.3 61% 76.02 1012.7
06 03:53 Vrbl 6 16.09 Fair CLR 10 2.2 59% 76.02 1012.6
06 02:53 NE 6 16.09 Fair CLR 9.4 2.8 64% 76 1012.5
06 01:53 NE 7 16.09 Fair CLR 9.4 5 74% 9 76 1012.5
06 00:53 NE 6 16.09 Fair CLR 12.2 3.3 55% 76 1012.3
05 23:53 NE 7 16.09 Fair CLR 12.8 3.3 53% 75.97 1012.0
05 22:53 NE 6 16.09 Fair CLR 12.2 2.8 23.9 12.2 53% 75.95 1011.7
05 21:53 Calm 16.09 Fair CLR 14.4 1.7 42% 75.9 1011.1
05 20:53 Calm 16.09 Fair CLR 15.6 1.7 39% 75.87 1010.7
05 19:53 NE 6 16.09 Fair CLR 18.3 1.7 33% 75.84 1010.2
05 18:53 E 15 16.09 Fair CLR 22.2 0.6 24% 75.82 1010.1
05 17:53 Calm 16.09 Fair CLR 23.3 0 21% 75.84 1010.3
05 16:53 E 9 16.09 Fair CLR 23.3 0.6 23.9 19.4 22% 75.87 1010.9
05 15:53 NW 15 16.09 A Few Clouds FEW060 23.3 1.1 23% 75.92 1011.2
Date Time (pdt) Wind (kph) Vis. (km) Weather Sky Cond. Air Dwpt Max. Min. Relative Humidity Wind Chill (°C) Heat Index (°C) altimeter (cm) sea level (mb) 1 hr 3 hr 6 hr
6 hour
Temperature (ºC) Pressure Precipitation (cm)